createdAt,value
2017-12-04T00:00:00.119Z,1017.98
2017-12-04T00:01:00.096Z,1017.93
2017-12-04T00:02:00.070Z,1017.90
2017-12-04T00:03:00.051Z,1017.92
2017-12-04T00:04:00.032Z,1017.94
2017-12-04T00:05:00.013Z,1017.90
2017-12-04T00:05:59.988Z,1017.92
2017-12-04T00:06:59.961Z,1017.88
2017-12-04T00:07:59.940Z,1017.88
2017-12-04T00:08:59.920Z,1017.94
2017-12-04T00:09:59.901Z,1017.92
2017-12-04T00:10:59.878Z,1017.90
2017-12-04T00:11:59.855Z,1017.88
2017-12-04T00:12:59.833Z,1017.90
2017-12-04T00:13:59.811Z,1017.91
2017-12-04T00:14:59.789Z,1017.92
2017-12-04T00:15:59.769Z,1017.94
2017-12-04T00:16:59.753Z,1017.93
2017-12-04T00:17:59.734Z,1018.02
2017-12-04T00:18:59.704Z,1017.99
2017-12-04T00:19:59.691Z,1017.98
2017-12-04T00:20:59.662Z,1018.00
2017-12-04T00:21:59.643Z,1018.04
2017-12-04T00:22:59.617Z,1018.03
2017-12-04T00:23:59.594Z,1018.05
2017-12-04T00:24:59.567Z,1018.05
2017-12-04T00:25:59.552Z,1018.03
2017-12-04T00:26:59.532Z,1018.04
2017-12-04T00:27:59.503Z,1018.05
2017-12-04T00:28:59.485Z,1018.05
2017-12-04T00:29:59.461Z,1018.09
2017-12-04T00:30:59.446Z,1018.07
2017-12-04T00:31:59.416Z,1018.04
2017-12-04T00:32:59.397Z,1018.10
2017-12-04T00:33:59.381Z,1018.07
2017-12-04T00:34:59.351Z,1018.06
2017-12-04T00:35:59.329Z,1018.08
2017-12-04T00:36:59.307Z,1018.06
2017-12-04T00:37:59.291Z,1018.08
2017-12-04T00:38:59.265Z,1018.07
2017-12-04T00:39:59.241Z,1018.11
2017-12-04T00:40:59.222Z,1018.09
2017-12-04T00:41:59.199Z,1018.10
2017-12-04T00:42:59.177Z,1018.11
2017-12-04T00:43:59.157Z,1018.12
2017-12-04T00:44:59.131Z,1018.06
2017-12-04T00:45:59.111Z,1018.03
2017-12-04T00:46:59.087Z,1017.97
2017-12-04T00:47:59.070Z,1017.96
2017-12-04T00:48:59.047Z,1018.00
2017-12-04T00:49:59.027Z,1018.01
2017-12-04T00:50:59.001Z,1017.98
2017-12-04T00:51:58.980Z,1018.05
2017-12-04T00:52:58.956Z,1018.00
2017-12-04T00:53:58.985Z,1017.99
2017-12-04T00:54:58.915Z,1018.03
2017-12-04T00:55:58.893Z,1018.01
2017-12-04T00:56:58.870Z,1018.09
2017-12-04T00:57:58.854Z,1018.11
2017-12-04T00:58:58.836Z,1018.10
2017-12-04T00:59:58.810Z,1018.11
2017-12-04T01:00:58.783Z,1018.08
2017-12-04T01:01:58.772Z,1018.13
2017-12-04T01:02:58.742Z,1018.10
2017-12-04T01:03:58.722Z,1018.13
2017-12-04T01:04:58.703Z,1018.10
2017-12-04T01:05:58.684Z,1018.11
2017-12-04T01:06:58.657Z,1018.13
2017-12-04T01:07:58.634Z,1018.14
2017-12-04T01:08:58.612Z,1018.21
2017-12-04T01:09:58.592Z,1018.23
2017-12-04T01:10:58.569Z,1018.18
2017-12-04T01:11:58.553Z,1018.18
2017-12-04T01:12:58.521Z,1018.13
2017-12-04T01:13:58.502Z,1018.11
2017-12-04T01:14:58.483Z,1018.04
2017-12-04T01:15:58.460Z,1018.12
2017-12-04T01:16:58.434Z,1018.11
2017-12-04T01:17:58.419Z,1018.14
2017-12-04T01:18:58.397Z,1018.21
2017-12-04T01:19:58.373Z,1018.27
2017-12-04T01:20:58.354Z,1018.31
2017-12-04T01:21:58.326Z,1018.30
2017-12-04T01:22:58.307Z,1018.34
2017-12-04T01:23:58.292Z,1018.35
2017-12-04T01:24:58.266Z,1018.35
2017-12-04T01:25:58.249Z,1018.37
2017-12-04T01:26:58.224Z,1018.39
2017-12-04T01:27:58.207Z,1018.35
2017-12-04T01:28:58.177Z,1018.36
2017-12-04T01:29:58.162Z,1018.34
2017-12-04T01:30:58.134Z,1018.33
2017-12-04T01:31:58.117Z,1018.31
2017-12-04T01:32:58.090Z,1018.29
2017-12-04T01:33:58.070Z,1018.26
2017-12-04T01:34:58.051Z,1018.26
2017-12-04T01:35:58.026Z,1018.25
2017-12-04T01:36:58.002Z,1018.31
2017-12-04T01:37:57.982Z,1018.27
2017-12-04T01:38:57.964Z,1018.31
2017-12-04T01:39:57.944Z,1018.30
2017-12-04T01:40:57.920Z,1018.31
2017-12-04T01:41:57.895Z,1018.33
2017-12-04T01:42:57.875Z,1018.37
2017-12-04T01:43:57.855Z,1018.40
2017-12-04T01:44:57.831Z,1018.42
2017-12-04T01:45:57.809Z,1018.48
2017-12-04T01:46:57.788Z,1018.49
2017-12-04T01:47:57.768Z,1018.50
2017-12-04T01:48:57.744Z,1018.49
2017-12-04T01:49:57.728Z,1018.48
2017-12-04T01:50:57.704Z,1018.48
2017-12-04T01:51:57.687Z,1018.47
2017-12-04T01:52:57.660Z,1018.40
2017-12-04T01:53:57.644Z,1018.41
2017-12-04T01:54:57.616Z,1018.43
2017-12-04T01:55:57.605Z,1018.45
2017-12-04T01:56:57.578Z,1018.42
2017-12-04T01:57:57.551Z,1018.43
2017-12-04T01:58:57.530Z,1018.43
2017-12-04T01:59:57.512Z,1018.46
2017-12-04T02:00:57.490Z,1018.46
2017-12-04T02:01:57.473Z,1018.45
2017-12-04T02:02:57.454Z,1018.48
2017-12-04T02:03:57.428Z,1018.48
2017-12-04T02:04:57.403Z,1018.44
2017-12-04T02:05:57.394Z,1018.44
2017-12-04T02:06:57.365Z,1018.45
2017-12-04T02:07:57.342Z,1018.46
2017-12-04T02:08:57.317Z,1018.42
2017-12-04T02:09:57.300Z,1018.40
2017-12-04T02:10:57.278Z,1018.44
2017-12-04T02:11:57.255Z,1018.42
2017-12-04T02:12:57.234Z,1018.46
2017-12-04T02:13:57.212Z,1018.43
2017-12-04T02:14:57.192Z,1018.43
2017-12-04T02:15:57.172Z,1018.43
2017-12-04T02:16:57.150Z,1018.42
2017-12-04T02:17:57.124Z,1018.40
2017-12-04T02:18:57.110Z,1018.41
2017-12-04T02:19:57.083Z,1018.38
2017-12-04T02:20:57.067Z,1018.39
2017-12-04T02:21:57.038Z,1018.41
2017-12-04T02:22:57.017Z,1018.41
2017-12-04T02:23:56.998Z,1018.40
2017-12-04T02:24:56.974Z,1018.44
2017-12-04T02:25:56.957Z,1018.42
2017-12-04T02:26:56.935Z,1018.43
2017-12-04T02:27:56.916Z,1018.40
2017-12-04T02:28:56.892Z,1018.43
2017-12-04T02:29:56.869Z,1018.40
2017-12-04T02:30:56.847Z,1018.41
2017-12-04T02:31:56.827Z,1018.43
2017-12-04T02:32:56.805Z,1018.44
2017-12-04T02:33:56.784Z,1018.41
2017-12-04T02:34:56.760Z,1018.42
2017-12-04T02:35:56.742Z,1018.40
2017-12-04T02:36:56.733Z,1018.40
2017-12-04T02:37:56.698Z,1018.41
2017-12-04T02:38:56.685Z,1018.44
2017-12-04T02:39:56.661Z,1018.39
2017-12-04T02:40:56.634Z,1018.41
2017-12-04T02:41:56.610Z,1018.43
2017-12-04T02:42:56.588Z,1018.43
2017-12-04T02:43:56.572Z,1018.45
2017-12-04T02:44:56.547Z,1018.48
2017-12-04T02:45:56.528Z,1018.45
2017-12-04T02:46:56.507Z,1018.46
2017-12-04T02:47:56.482Z,1018.41
2017-12-04T02:48:56.463Z,1018.38
2017-12-04T02:49:56.444Z,1018.36
2017-12-04T02:50:56.424Z,1018.34
2017-12-04T02:51:56.398Z,1018.38
2017-12-04T02:52:56.376Z,1018.36
2017-12-04T02:53:56.394Z,1018.31
2017-12-04T02:54:56.333Z,1018.33
2017-12-04T02:55:56.310Z,1018.34
2017-12-04T02:56:56.288Z,1018.36
2017-12-04T02:57:56.270Z,1018.33
2017-12-04T02:58:56.248Z,1018.41
2017-12-04T02:59:56.225Z,1018.42
2017-12-04T03:00:56.205Z,1018.38
2017-12-04T03:01:56.182Z,1018.42
2017-12-04T03:02:56.162Z,1018.41
2017-12-04T03:03:56.148Z,1018.41
2017-12-04T03:04:56.119Z,1018.39
2017-12-04T03:05:56.103Z,1018.34
2017-12-04T03:06:56.074Z,1018.39
2017-12-04T03:07:56.058Z,1018.42
2017-12-04T03:08:56.033Z,1018.39
2017-12-04T03:09:56.013Z,1018.42
2017-12-04T03:10:55.991Z,1018.42
2017-12-04T03:11:55.967Z,1018.44
2017-12-04T03:12:55.944Z,1018.45
2017-12-04T03:13:55.929Z,1018.39
2017-12-04T03:14:55.904Z,1018.40
2017-12-04T03:15:55.889Z,1018.43
2017-12-04T03:16:55.861Z,1018.37
2017-12-04T03:17:55.838Z,1018.38
2017-12-04T03:18:55.817Z,1018.41
2017-12-04T03:19:55.795Z,1018.41
2017-12-04T03:20:55.777Z,1018.46
2017-12-04T03:21:55.754Z,1018.47
2017-12-04T03:22:55.736Z,1018.45
2017-12-04T03:23:55.714Z,1018.50
2017-12-04T03:24:55.694Z,1018.47
2017-12-04T03:25:55.668Z,1018.45
2017-12-04T03:26:55.647Z,1018.45
2017-12-04T03:27:55.626Z,1018.42
2017-12-04T03:28:55.603Z,1018.41
2017-12-04T03:29:55.585Z,1018.44
2017-12-04T03:30:55.558Z,1018.39
2017-12-04T03:31:55.546Z,1018.42
2017-12-04T03:32:55.521Z,1018.41
2017-12-04T03:33:55.498Z,1018.42
2017-12-04T03:34:55.476Z,1018.44
2017-12-04T03:35:55.470Z,1018.40
2017-12-04T03:36:55.433Z,1018.43
2017-12-04T03:37:55.415Z,1018.42
2017-12-04T03:38:55.390Z,1018.41
2017-12-04T03:39:55.371Z,1018.41
2017-12-04T03:40:55.353Z,1018.38
2017-12-04T03:41:55.330Z,1018.43
2017-12-04T03:42:55.308Z,1018.37
2017-12-04T03:43:55.284Z,1018.40
2017-12-04T03:44:55.262Z,1018.39
2017-12-04T03:45:55.240Z,1018.37
2017-12-04T03:46:55.221Z,1018.43
2017-12-04T03:47:55.202Z,1018.43
2017-12-04T03:48:55.181Z,1018.38
2017-12-04T03:49:55.160Z,1018.43
2017-12-04T03:50:55.136Z,1018.44
2017-12-04T03:51:55.111Z,1018.42
2017-12-04T03:52:55.094Z,1018.41
2017-12-04T03:53:55.071Z,1018.40
2017-12-04T03:54:55.048Z,1018.42
2017-12-04T03:55:55.031Z,1018.42
2017-12-04T03:56:55.010Z,1018.41
2017-12-04T03:57:54.986Z,1018.43
2017-12-04T03:58:54.969Z,1018.46
2017-12-04T03:59:54.944Z,1018.43
2017-12-04T04:00:54.921Z,1018.46
2017-12-04T04:01:54.899Z,1018.46
2017-12-04T04:02:54.883Z,1018.48
2017-12-04T04:03:54.861Z,1018.47
2017-12-04T04:04:54.838Z,1018.54
2017-12-04T04:05:54.822Z,1018.51
2017-12-04T04:06:54.797Z,1018.56
2017-12-04T04:07:54.774Z,1018.53
2017-12-04T04:08:54.751Z,1018.55
2017-12-04T04:09:54.745Z,1018.50
2017-12-04T04:10:54.708Z,1018.53
2017-12-04T04:11:54.693Z,1018.50
2017-12-04T04:12:54.672Z,1018.48
2017-12-04T04:13:54.643Z,1018.50
2017-12-04T04:14:54.631Z,1018.50
2017-12-04T04:15:54.603Z,1018.49
2017-12-04T04:16:54.581Z,1018.53
2017-12-04T04:17:54.557Z,1018.50
2017-12-04T04:18:54.542Z,1018.51
2017-12-04T04:19:54.568Z,1018.54
2017-12-04T04:20:54.497Z,1018.53
2017-12-04T04:21:54.477Z,1018.56
2017-12-04T04:22:54.451Z,1018.61
2017-12-04T04:23:54.430Z,1018.61
2017-12-04T04:24:54.410Z,1018.59
2017-12-04T04:25:54.390Z,1018.54
2017-12-04T04:26:54.367Z,1018.55
2017-12-04T04:27:54.351Z,1018.55
2017-12-04T04:28:54.326Z,1018.58
2017-12-04T04:29:54.299Z,1018.57
2017-12-04T04:30:54.279Z,1018.56
2017-12-04T04:31:54.263Z,1018.55
2017-12-04T04:32:54.243Z,1018.53
2017-12-04T04:33:54.214Z,1018.57
2017-12-04T04:34:54.196Z,1018.56
2017-12-04T04:35:54.185Z,1018.57
2017-12-04T04:36:54.154Z,1018.54
2017-12-04T04:37:54.136Z,1018.55
2017-12-04T04:38:54.114Z,1018.54
2017-12-04T04:39:54.091Z,1018.54
2017-12-04T04:40:54.070Z,1018.54
2017-12-04T04:41:54.055Z,1018.53
2017-12-04T04:42:54.025Z,1018.57
2017-12-04T04:43:54.003Z,1018.52
2017-12-04T04:44:53.990Z,1018.53
2017-12-04T04:45:53.961Z,1018.56
2017-12-04T04:46:53.939Z,1018.55
2017-12-04T04:47:53.920Z,1018.55
2017-12-04T04:48:53.900Z,1018.57
2017-12-04T04:49:53.877Z,1018.60
2017-12-04T04:50:53.859Z,1018.57
2017-12-04T04:51:53.835Z,1018.59
2017-12-04T04:52:53.817Z,1018.63
2017-12-04T04:53:53.790Z,1018.60
2017-12-04T04:54:53.770Z,1018.61
2017-12-04T04:55:53.749Z,1018.63
2017-12-04T04:56:53.727Z,1018.62
2017-12-04T04:57:53.709Z,1018.65
2017-12-04T04:58:53.689Z,1018.68
2017-12-04T04:59:53.663Z,1018.65
2017-12-04T05:00:53.640Z,1018.68
2017-12-04T05:01:53.621Z,1018.64
2017-12-04T05:02:53.599Z,1018.68
2017-12-04T05:03:53.575Z,1018.65
2017-12-04T05:04:53.558Z,1018.63
2017-12-04T05:05:53.535Z,1018.63
2017-12-04T05:06:53.510Z,1018.67
2017-12-04T05:07:53.490Z,1018.65
2017-12-04T05:08:53.470Z,1018.63
2017-12-04T05:09:53.449Z,1018.64
2017-12-04T05:10:53.430Z,1018.67
2017-12-04T05:11:53.405Z,1018.63
2017-12-04T05:12:53.385Z,1018.64
2017-12-04T05:13:53.371Z,1018.64
2017-12-04T05:14:53.339Z,1018.65
2017-12-04T05:15:53.320Z,1018.68
2017-12-04T05:16:53.298Z,1018.63
2017-12-04T05:17:53.277Z,1018.70
2017-12-04T05:18:53.258Z,1018.71
2017-12-04T05:19:53.241Z,1018.74
2017-12-04T05:20:53.221Z,1018.75
2017-12-04T05:21:53.191Z,1018.75
2017-12-04T05:22:53.173Z,1018.75
2017-12-04T05:23:53.153Z,1018.72
2017-12-04T05:24:53.146Z,1018.74
2017-12-04T05:25:53.112Z,1018.79
2017-12-04T05:26:53.094Z,1018.76
2017-12-04T05:27:53.063Z,1018.73
2017-12-04T05:28:53.043Z,1018.73
2017-12-04T05:29:53.022Z,1018.74
2017-12-04T05:30:53.000Z,1018.79
2017-12-04T05:31:52.984Z,1018.78
2017-12-04T05:32:52.961Z,1018.76
2017-12-04T05:33:52.940Z,1018.80
2017-12-04T05:34:52.915Z,1018.78
2017-12-04T05:35:52.905Z,1018.79
2017-12-04T05:36:52.877Z,1018.80
2017-12-04T05:37:52.851Z,1018.82
2017-12-04T05:38:52.833Z,1018.81
2017-12-04T05:39:52.809Z,1018.85
2017-12-04T05:40:52.790Z,1018.86
2017-12-04T05:41:52.766Z,1018.85
2017-12-04T05:42:52.751Z,1018.84
2017-12-04T05:43:52.727Z,1018.86
2017-12-04T05:44:52.701Z,1018.81
2017-12-04T05:45:52.682Z,1018.80
2017-12-04T05:46:52.659Z,1018.78
2017-12-04T05:47:52.638Z,1018.79
2017-12-04T05:48:52.619Z,1018.74
2017-12-04T05:49:52.600Z,1018.73
2017-12-04T05:50:52.576Z,1018.70
2017-12-04T05:51:52.555Z,1018.74
2017-12-04T05:52:52.539Z,1018.74
2017-12-04T05:53:52.523Z,1018.75
2017-12-04T05:54:52.494Z,1018.73
2017-12-04T05:55:52.471Z,1018.72
2017-12-04T05:56:52.448Z,1018.76
2017-12-04T05:57:52.433Z,1018.79
2017-12-04T05:58:52.413Z,1018.75
2017-12-04T05:59:52.391Z,1018.77
2017-12-04T06:00:52.361Z,1018.77
2017-12-04T06:01:52.349Z,1018.78
2017-12-04T06:02:52.324Z,1018.80
2017-12-04T06:03:52.297Z,1018.78
2017-12-04T06:04:52.288Z,1018.87
2017-12-04T06:05:52.255Z,1018.84
2017-12-04T06:06:52.242Z,1018.89
2017-12-04T06:07:52.225Z,1018.88
2017-12-04T06:08:52.195Z,1018.93
2017-12-04T06:09:52.172Z,1018.93
2017-12-04T06:10:52.151Z,1018.93
2017-12-04T06:11:52.130Z,1019.00
2017-12-04T06:12:52.115Z,1018.97
2017-12-04T06:13:52.090Z,1018.97
2017-12-04T06:14:52.079Z,1018.97
2017-12-04T06:15:52.046Z,1018.99
2017-12-04T06:16:52.029Z,1019.00
2017-12-04T06:17:52.000Z,1019.04
2017-12-04T06:18:51.979Z,1019.06
2017-12-04T06:19:51.963Z,1019.09
2017-12-04T06:20:51.937Z,1019.08
2017-12-04T06:21:51.916Z,1019.10
2017-12-04T06:22:51.898Z,1019.10
2017-12-04T06:23:51.875Z,1019.14
2017-12-04T06:24:51.854Z,1019.16
2017-12-04T06:25:51.837Z,1019.16
2017-12-04T06:26:51.814Z,1019.18
2017-12-04T06:27:51.793Z,1019.17
2017-12-04T06:28:51.767Z,1019.14
2017-12-04T06:29:51.754Z,1019.19
2017-12-04T06:30:51.729Z,1019.18
2017-12-04T06:31:51.715Z,1019.16
2017-12-04T06:32:51.684Z,1019.19
2017-12-04T06:33:51.663Z,1019.19
2017-12-04T06:34:51.653Z,1019.17
2017-12-04T06:35:51.623Z,1019.18
2017-12-04T06:36:51.600Z,1019.23
2017-12-04T06:37:51.580Z,1019.21
2017-12-04T06:38:51.559Z,1019.21
2017-12-04T06:39:51.537Z,1019.22
2017-12-04T06:40:51.522Z,1019.22
2017-12-04T06:41:51.494Z,1019.22
2017-12-04T06:42:51.478Z,1019.22
2017-12-04T06:43:51.458Z,1019.21
2017-12-04T06:44:51.443Z,1019.23
2017-12-04T06:45:51.411Z,1019.18
2017-12-04T06:46:51.392Z,1019.16
2017-12-04T06:47:51.373Z,1019.22
2017-12-04T06:48:51.351Z,1019.22
2017-12-04T06:49:51.329Z,1019.25
2017-12-04T06:50:51.309Z,1019.27
2017-12-04T06:51:51.286Z,1019.30
2017-12-04T06:52:51.261Z,1019.29
2017-12-04T06:53:51.244Z,1019.31
2017-12-04T06:54:51.223Z,1019.32
2017-12-04T06:55:51.200Z,1019.30
2017-12-04T06:56:51.179Z,1019.36
2017-12-04T06:57:51.157Z,1019.33
2017-12-04T06:58:51.143Z,1019.38
2017-12-04T06:59:51.117Z,1019.38
2017-12-04T07:00:51.098Z,1019.40
2017-12-04T07:01:51.072Z,1019.39
2017-12-04T07:02:51.051Z,1019.44
2017-12-04T07:03:51.031Z,1019.40
2017-12-04T07:04:51.009Z,1019.41
2017-12-04T07:05:50.990Z,1019.40
2017-12-04T07:06:50.968Z,1019.39
2017-12-04T07:07:50.947Z,1019.38
2017-12-04T07:08:50.928Z,1019.38
2017-12-04T07:09:50.904Z,1019.40
2017-12-04T07:10:50.885Z,1019.44
2017-12-04T07:11:50.864Z,1019.46
2017-12-04T07:12:50.842Z,1019.52
2017-12-04T07:13:50.819Z,1019.53
2017-12-04T07:14:50.800Z,1019.55
2017-12-04T07:15:50.782Z,1019.57
2017-12-04T07:16:50.761Z,1019.58
2017-12-04T07:17:50.736Z,1019.59
2017-12-04T07:18:50.717Z,1019.57
2017-12-04T07:19:50.691Z,1019.58
2017-12-04T07:20:50.672Z,1019.64
2017-12-04T07:21:50.654Z,1019.66
2017-12-04T07:22:50.634Z,1019.62
2017-12-04T07:23:50.612Z,1019.63
2017-12-04T07:24:50.587Z,1019.61
2017-12-04T07:25:50.570Z,1019.61
2017-12-04T07:26:50.547Z,1019.64
2017-12-04T07:27:50.524Z,1019.60
2017-12-04T07:28:50.506Z,1019.62
2017-12-04T07:29:50.481Z,1019.64
2017-12-04T07:30:50.462Z,1019.64
2017-12-04T07:31:50.439Z,1019.66
2017-12-04T07:32:50.420Z,1019.69
2017-12-04T07:33:50.400Z,1019.75
2017-12-04T07:34:50.383Z,1019.74
2017-12-04T07:35:50.361Z,1019.77
2017-12-04T07:36:50.334Z,1019.73
2017-12-04T07:37:50.327Z,1019.74
2017-12-04T07:38:50.290Z,1019.72
2017-12-04T07:39:50.270Z,1019.77
2017-12-04T07:40:50.251Z,1019.76
2017-12-04T07:41:50.232Z,1019.79
2017-12-04T07:42:50.209Z,1019.79
2017-12-04T07:43:50.190Z,1019.80
2017-12-04T07:44:50.167Z,1019.82
2017-12-04T07:45:50.152Z,1019.83
2017-12-04T07:46:50.178Z,1019.86
2017-12-04T07:47:50.105Z,1019.85
2017-12-04T07:48:50.088Z,1019.84
2017-12-04T07:49:50.063Z,1019.85
2017-12-04T07:50:50.040Z,1019.86
2017-12-04T07:51:50.022Z,1019.86
2017-12-04T07:52:50.002Z,1019.79
2017-12-04T07:53:49.977Z,1019.82
2017-12-04T07:54:49.964Z,1019.87
2017-12-04T07:55:49.950Z,1019.84
2017-12-04T07:56:49.913Z,1019.85
2017-12-04T07:57:49.899Z,1019.84
2017-12-04T07:58:49.871Z,1019.81
2017-12-04T07:59:49.850Z,1019.82
2017-12-04T08:00:49.828Z,1019.83
2017-12-04T08:01:49.813Z,1019.83
2017-12-04T08:02:49.790Z,1019.81
2017-12-04T08:03:49.771Z,1019.83
2017-12-04T08:04:49.746Z,1019.84
2017-12-04T08:05:49.724Z,1019.87
2017-12-04T08:06:49.707Z,1019.88
2017-12-04T08:07:49.683Z,1019.89
2017-12-04T08:08:49.660Z,1019.88
2017-12-04T08:09:49.641Z,1019.90
2017-12-04T08:10:49.620Z,1019.92
2017-12-04T08:11:49.600Z,1019.91
2017-12-04T08:12:49.588Z,1019.99
2017-12-04T08:13:49.556Z,1019.93
2017-12-04T08:14:49.537Z,1019.91
2017-12-04T08:15:49.514Z,1019.94
2017-12-04T08:16:49.492Z,1019.99
2017-12-04T08:17:49.471Z,1019.97
2017-12-04T08:18:49.454Z,1020.00
2017-12-04T08:19:49.432Z,1019.97
2017-12-04T08:20:49.410Z,1019.95
2017-12-04T08:21:49.400Z,1019.95
2017-12-04T08:22:49.374Z,1019.94
2017-12-04T08:23:49.351Z,1019.95
2017-12-04T08:24:49.333Z,1019.98
2017-12-04T08:25:49.308Z,1019.99
2017-12-04T08:26:49.282Z,1019.99
2017-12-04T08:27:49.267Z,1020.01
2017-12-04T08:28:49.243Z,1020.06
2017-12-04T08:29:49.223Z,1020.08
2017-12-04T08:30:49.209Z,1020.11
2017-12-04T08:31:49.180Z,1020.15
2017-12-04T08:32:49.159Z,1020.20
2017-12-04T08:33:49.144Z,1020.19
2017-12-04T08:34:49.167Z,1020.25
2017-12-04T08:35:49.097Z,1020.25
2017-12-04T08:36:49.076Z,1020.23
2017-12-04T08:37:49.057Z,1020.25
2017-12-04T08:38:49.034Z,1020.26
2017-12-04T08:39:49.016Z,1020.28
2017-12-04T08:40:48.991Z,1020.26
2017-12-04T08:41:48.976Z,1020.29
2017-12-04T08:42:48.950Z,1020.29
2017-12-04T08:43:48.933Z,1020.33
2017-12-04T08:44:48.907Z,1020.33
2017-12-04T08:45:48.891Z,1020.36
2017-12-04T08:46:48.866Z,1020.39
2017-12-04T08:47:48.846Z,1020.40
2017-12-04T08:48:48.828Z,1020.36
2017-12-04T08:49:48.805Z,1020.40
2017-12-04T08:50:48.783Z,1020.41
2017-12-04T08:51:48.775Z,1020.42
2017-12-04T08:52:48.740Z,1020.45
2017-12-04T08:53:48.721Z,1020.45
2017-12-04T08:54:48.699Z,1020.49
2017-12-04T08:55:48.687Z,1020.49
2017-12-04T08:56:48.664Z,1020.54
2017-12-04T08:57:48.640Z,1020.54
2017-12-04T08:58:48.620Z,1020.61
2017-12-04T08:59:48.602Z,1020.63
2017-12-04T09:00:48.579Z,1020.66
2017-12-04T09:01:48.557Z,1020.68
2017-12-04T09:02:48.534Z,1020.69
2017-12-04T09:03:48.515Z,1020.73
2017-12-04T09:04:48.492Z,1020.74
2017-12-04T09:05:48.475Z,1020.77
2017-12-04T09:06:48.454Z,1020.75
2017-12-04T09:07:48.430Z,1020.82
2017-12-04T09:08:48.407Z,1020.84
2017-12-04T09:09:48.386Z,1020.85
2017-12-04T09:10:48.366Z,1020.86
2017-12-04T09:11:48.355Z,1020.87
2017-12-04T09:12:48.329Z,1020.91
2017-12-04T09:13:48.313Z,1020.92
2017-12-04T09:14:48.285Z,1020.93
2017-12-04T09:15:48.264Z,1020.98
2017-12-04T09:16:48.247Z,1020.96
2017-12-04T09:17:48.224Z,1020.96
2017-12-04T09:18:48.204Z,1020.97
2017-12-04T09:19:48.182Z,1020.90
2017-12-04T09:20:48.163Z,1020.99
2017-12-04T09:21:48.138Z,1020.94
2017-12-04T09:22:48.121Z,1021.00
2017-12-04T09:23:48.095Z,1020.98
2017-12-04T09:24:48.074Z,1021.01
2017-12-04T09:25:48.053Z,1021.04
2017-12-04T09:26:48.032Z,1021.02
2017-12-04T09:27:48.016Z,1021.10
2017-12-04T09:28:47.992Z,1021.10
2017-12-04T09:29:47.972Z,1021.08
2017-12-04T09:30:47.952Z,1021.12
2017-12-04T09:31:47.933Z,1021.11
2017-12-04T09:32:47.909Z,1021.06
2017-12-04T09:33:47.889Z,1021.07
2017-12-04T09:34:47.868Z,1021.07
2017-12-04T09:35:47.851Z,1021.04
2017-12-04T09:36:47.828Z,1021.11
2017-12-04T09:37:47.806Z,1021.15
2017-12-04T09:38:47.790Z,1021.12
2017-12-04T09:39:47.767Z,1021.15
2017-12-04T09:40:47.741Z,1021.14
2017-12-04T09:41:47.725Z,1021.16
2017-12-04T09:42:47.703Z,1021.10
2017-12-04T09:43:47.680Z,1021.13
2017-12-04T09:44:47.664Z,1021.20
2017-12-04T09:45:47.643Z,1021.18
2017-12-04T09:46:47.619Z,1021.22
2017-12-04T09:47:47.597Z,1021.22
2017-12-04T09:48:47.574Z,1021.20
2017-12-04T09:49:47.556Z,1021.28
2017-12-04T09:50:47.535Z,1021.29
2017-12-04T09:51:47.518Z,1021.32
2017-12-04T09:52:47.496Z,1021.34
2017-12-04T09:53:47.473Z,1021.34
2017-12-04T09:54:47.458Z,1021.36
2017-12-04T09:55:47.452Z,1021.35
2017-12-04T09:56:47.414Z,1021.39
2017-12-04T09:57:47.395Z,1021.36
2017-12-04T09:58:47.377Z,1021.38
2017-12-04T09:59:47.352Z,1021.38
2017-12-04T10:00:47.331Z,1021.40
2017-12-04T10:01:47.310Z,1021.43
2017-12-04T10:02:47.290Z,1021.41
2017-12-04T10:03:47.282Z,1021.41
2017-12-04T10:04:47.251Z,1021.41
2017-12-04T10:05:47.227Z,1021.40
2017-12-04T10:06:47.208Z,1021.42
2017-12-04T10:07:47.193Z,1021.45
2017-12-04T10:08:47.181Z,1021.47
2017-12-04T10:09:47.152Z,1021.46
2017-12-04T10:10:47.124Z,1021.43
2017-12-04T10:11:47.107Z,1021.42
2017-12-04T10:12:47.086Z,1021.44
2017-12-04T10:13:47.066Z,1021.39
2017-12-04T10:14:47.041Z,1021.41
2017-12-04T10:15:47.028Z,1021.38
2017-12-04T10:16:47.001Z,1021.35
2017-12-04T10:17:46.983Z,1021.36
2017-12-04T10:18:46.958Z,1021.37
2017-12-04T10:19:46.938Z,1021.41
2017-12-04T10:20:46.923Z,1021.39
2017-12-04T10:21:46.901Z,1021.41
2017-12-04T10:22:46.883Z,1021.43
2017-12-04T10:23:46.858Z,1021.42
2017-12-04T10:24:46.839Z,1021.39
2017-12-04T10:25:46.819Z,1021.41
2017-12-04T10:26:46.793Z,1021.48
2017-12-04T10:27:46.777Z,1021.47
2017-12-04T10:28:46.759Z,1021.42
2017-12-04T10:29:46.737Z,1021.42
2017-12-04T10:30:46.712Z,1021.44
2017-12-04T10:31:46.713Z,1021.39
2017-12-04T10:32:46.671Z,1021.42
2017-12-04T10:33:46.649Z,1021.37
2017-12-04T10:34:46.635Z,1021.39
2017-12-04T10:35:46.611Z,1021.45
2017-12-04T10:36:46.592Z,1021.47
2017-12-04T10:37:46.572Z,1021.46
2017-12-04T10:38:46.561Z,1021.47
2017-12-04T10:39:46.531Z,1021.43
2017-12-04T10:40:46.567Z,1021.42
2017-12-04T10:41:46.483Z,1021.37
2017-12-04T10:42:46.477Z,1021.40
2017-12-04T10:43:46.448Z,1021.40
2017-12-04T10:44:46.426Z,1021.40
2017-12-04T10:45:46.406Z,1021.36
2017-12-04T10:46:46.387Z,1021.38
2017-12-04T10:47:46.359Z,1021.43
2017-12-04T10:48:46.340Z,1021.43
2017-12-04T10:49:46.327Z,1021.47
2017-12-04T10:50:46.304Z,1021.50
2017-12-04T10:51:46.282Z,1021.56
2017-12-04T10:52:46.264Z,1021.56
2017-12-04T10:53:46.236Z,1021.59
2017-12-04T10:54:46.220Z,1021.63
2017-12-04T10:55:46.201Z,1021.68
2017-12-04T10:56:46.174Z,1021.68
2017-12-04T10:57:46.159Z,1021.67
2017-12-04T10:58:46.134Z,1021.77
2017-12-04T10:59:46.120Z,1021.74
2017-12-04T11:00:46.103Z,1021.76
2017-12-04T11:01:46.078Z,1021.76
2017-12-04T11:02:46.054Z,1021.73
2017-12-04T11:03:46.040Z,1021.73
2017-12-04T11:04:46.018Z,1021.72
2017-12-04T11:05:45.992Z,1021.73
2017-12-04T11:06:45.973Z,1021.72
2017-12-04T11:07:45.954Z,1021.72
2017-12-04T11:08:45.927Z,1021.79
2017-12-04T11:09:45.910Z,1021.78
2017-12-04T11:10:45.888Z,1021.80
2017-12-04T11:11:45.878Z,1021.83
2017-12-04T11:12:45.852Z,1021.83
2017-12-04T11:13:45.831Z,1021.78
2017-12-04T11:14:45.808Z,1021.78
2017-12-04T11:15:45.787Z,1021.75
2017-12-04T11:16:45.767Z,1021.66
2017-12-04T11:17:45.745Z,1021.67
2017-12-04T11:18:45.732Z,1021.61
2017-12-04T11:19:45.700Z,1021.50
2017-12-04T11:20:45.690Z,1021.49
2017-12-04T11:21:45.661Z,1021.50
2017-12-04T11:22:45.641Z,1021.49
2017-12-04T11:23:45.620Z,1021.45
2017-12-04T11:24:45.602Z,1021.49
2017-12-04T11:25:45.583Z,1021.49
2017-12-04T11:26:45.561Z,1021.54
2017-12-04T11:27:45.540Z,1021.53
2017-12-04T11:28:45.522Z,1021.51
2017-12-04T11:29:45.497Z,1021.56
2017-12-04T11:30:45.490Z,1021.58
2017-12-04T11:31:45.460Z,1021.57
2017-12-04T11:32:45.436Z,1021.57
2017-12-04T11:33:45.418Z,1021.60
2017-12-04T11:34:45.400Z,1021.59
2017-12-04T11:35:45.375Z,1021.53
2017-12-04T11:36:45.356Z,1021.52
2017-12-04T11:37:45.344Z,1021.55
2017-12-04T11:38:45.311Z,1021.58
2017-12-04T11:39:45.292Z,1021.58
2017-12-04T11:40:45.295Z,1021.53
2017-12-04T11:41:45.253Z,1021.51
2017-12-04T11:42:45.234Z,1021.54
2017-12-04T11:43:45.212Z,1021.53
2017-12-04T11:44:45.242Z,1021.52
2017-12-04T11:45:45.171Z,1021.48
2017-12-04T11:46:45.146Z,1021.46
2017-12-04T11:47:45.132Z,1021.50
2017-12-04T11:48:45.111Z,1021.48
2017-12-04T11:49:45.089Z,1021.46
2017-12-04T11:50:45.065Z,1021.51
2017-12-04T11:51:45.051Z,1021.52
2017-12-04T11:52:45.024Z,1021.56
2017-12-04T11:53:45.009Z,1021.54
2017-12-04T11:54:44.987Z,1021.58
2017-12-04T11:55:44.969Z,1021.56
2017-12-04T11:56:44.942Z,1021.53
2017-12-04T11:57:44.921Z,1021.48
2017-12-04T11:58:44.916Z,1021.51
2017-12-04T11:59:44.892Z,1021.47
2017-12-04T12:00:44.860Z,1021.44
2017-12-04T12:01:44.841Z,1021.43
2017-12-04T12:02:44.824Z,1021.39
2017-12-04T12:03:44.801Z,1021.37
2017-12-04T12:04:44.780Z,1021.35